createdAt,value
2017-01-18T00:00:10.014Z,1009.81
2017-01-18T00:00:50.603Z,1009.8
2017-01-18T00:01:31.196Z,1009.8
2017-01-18T00:02:11.788Z,1009.79
2017-01-18T00:02:52.382Z,1009.85
2017-01-18T00:03:32.950Z,1009.79
2017-01-18T00:04:13.532Z,1009.84
2017-01-18T00:04:54.125Z,1009.83
2017-01-18T00:05:34.701Z,1009.86
2017-01-18T00:06:15.275Z,1009.85
2017-01-18T00:06:55.858Z,1009.87
2017-01-18T00:07:36.437Z,1009.88
2017-01-18T00:08:17.029Z,1009.85
2017-01-18T00:08:57.621Z,1009.9
2017-01-18T00:09:38.219Z,1009.86
2017-01-18T00:10:18.820Z,1009.92
2017-01-18T00:10:59.415Z,1009.91
2017-01-18T00:11:39.988Z,1009.95
2017-01-18T00:12:20.583Z,1009.94
2017-01-18T00:13:01.161Z,1009.97
2017-01-18T00:13:41.742Z,1009.95
2017-01-18T00:14:22.337Z,1009.94
2017-01-18T00:15:02.925Z,1009.92
2017-01-18T00:15:43.510Z,1009.9
2017-01-18T00:16:24.087Z,1009.89
2017-01-18T00:17:04.673Z,1009.9
2017-01-18T00:17:45.254Z,1009.91
2017-01-18T00:18:25.844Z,1009.88
2017-01-18T00:19:06.422Z,1009.9
2017-01-18T00:19:47.006Z,1009.88
2017-01-18T00:20:27.616Z,1009.9
2017-01-18T00:21:08.199Z,1009.87
2017-01-18T00:21:48.787Z,1009.89
2017-01-18T00:22:29.376Z,1009.92
2017-01-18T00:23:09.959Z,1009.91
2017-01-18T00:23:50.546Z,1009.95
2017-01-18T00:24:31.133Z,1009.93
2017-01-18T00:25:11.758Z,1009.96
2017-01-18T00:25:52.361Z,1009.95
2017-01-18T00:26:32.959Z,1009.99
2017-01-18T00:27:13.553Z,1009.94
2017-01-18T00:27:54.149Z,1009.96
2017-01-18T00:28:34.753Z,1009.95
2017-01-18T00:29:15.335Z,1009.92
2017-01-18T00:29:55.955Z,1009.91
2017-01-18T00:30:36.544Z,1009.92
2017-01-18T00:31:17.137Z,1009.89
2017-01-18T00:31:57.727Z,1009.88
2017-01-18T00:32:38.317Z,1009.93
2017-01-18T00:33:18.896Z,1009.9
2017-01-18T00:33:59.487Z,1009.89
2017-01-18T00:34:40.077Z,1009.9
2017-01-18T00:35:20.667Z,1009.86
2017-01-18T00:36:01.260Z,1009.87
2017-01-18T00:36:41.874Z,1009.84
2017-01-18T00:37:22.473Z,1009.82
2017-01-18T00:38:03.090Z,1009.83
2017-01-18T00:38:43.658Z,1009.82
2017-01-18T00:39:24.238Z,1009.76
2017-01-18T00:40:04.831Z,1009.73
2017-01-18T00:40:45.425Z,1009.75
2017-01-18T00:41:26.021Z,1009.77
2017-01-18T00:42:06.600Z,1009.72
2017-01-18T00:42:47.202Z,1009.73
2017-01-18T00:43:27.804Z,1009.73
2017-01-18T00:44:08.399Z,1009.7
2017-01-18T00:44:48.985Z,1009.74
2017-01-18T00:45:29.573Z,1009.72
2017-01-18T00:46:10.153Z,1009.74
2017-01-18T00:46:50.747Z,1009.72
2017-01-18T00:47:31.334Z,1009.71
2017-01-18T00:48:11.930Z,1009.74
2017-01-18T00:48:52.506Z,1009.71
2017-01-18T00:49:33.083Z,1009.74
2017-01-18T00:50:13.676Z,1009.78
2017-01-18T00:50:54.278Z,1009.8
2017-01-18T00:51:34.868Z,1009.78
2017-01-18T00:52:15.446Z,1009.77
2017-01-18T00:52:56.033Z,1009.78
2017-01-18T00:53:36.613Z,1009.76
2017-01-18T00:54:17.190Z,1009.78
2017-01-18T00:54:57.782Z,1009.77
2017-01-18T00:55:38.372Z,1009.79
2017-01-18T00:56:18.947Z,1009.79
2017-01-18T00:56:59.525Z,1009.75
2017-01-18T00:57:40.118Z,1009.77
2017-01-18T00:58:20.709Z,1009.74
2017-01-18T00:59:01.298Z,1009.73
2017-01-18T00:59:41.882Z,1009.79
2017-01-18T01:00:22.463Z,1009.79
2017-01-18T01:01:03.041Z,1009.72
2017-01-18T01:01:43.614Z,1009.79
2017-01-18T01:02:24.202Z,1009.78
2017-01-18T01:03:04.794Z,1009.78
2017-01-18T01:03:45.392Z,1009.77
2017-01-18T01:04:25.988Z,1009.79
2017-01-18T01:05:06.570Z,1009.82
2017-01-18T01:05:47.155Z,1009.81
2017-01-18T01:06:27.746Z,1009.78
2017-01-18T01:07:08.332Z,1009.84
2017-01-18T01:07:48.919Z,1009.8
2017-01-18T01:08:29.507Z,1009.75
2017-01-18T01:09:10.093Z,1009.79
2017-01-18T01:09:50.668Z,1009.73
2017-01-18T01:10:31.263Z,1009.79
2017-01-18T01:11:11.840Z,1009.77
2017-01-18T01:11:52.425Z,1009.71
2017-01-18T01:12:33.017Z,1009.71
2017-01-18T01:13:13.597Z,1009.75
2017-01-18T01:13:54.187Z,1009.66
2017-01-18T01:14:34.779Z,1009.71
2017-01-18T01:15:15.376Z,1009.75
2017-01-18T01:15:55.981Z,1009.76
2017-01-18T01:16:36.580Z,1009.71
2017-01-18T01:17:17.169Z,1009.75
2017-01-18T01:17:57.750Z,1009.75
2017-01-18T01:18:38.347Z,1009.77
2017-01-18T01:19:18.930Z,1009.76
2017-01-18T01:19:59.549Z,1009.76
2017-01-18T01:20:40.134Z,1009.78
2017-01-18T01:21:20.723Z,1009.81
2017-01-18T01:22:01.307Z,1009.85
2017-01-18T01:22:41.886Z,1009.84
2017-01-18T01:23:22.463Z,1009.86
2017-01-18T01:24:03.050Z,1009.82
2017-01-18T01:24:43.663Z,1009.82
2017-01-18T01:25:24.263Z,1009.85
2017-01-18T01:26:04.838Z,1009.86
2017-01-18T01:26:45.425Z,1009.87
2017-01-18T01:27:26.013Z,1009.87
2017-01-18T01:28:06.595Z,1009.87
2017-01-18T01:28:47.206Z,1009.85
2017-01-18T01:29:27.814Z,1009.88
2017-01-18T01:30:08.409Z,1009.86
2017-01-18T01:30:49.011Z,1009.88
2017-01-18T01:31:29.598Z,1009.92
2017-01-18T01:32:10.178Z,1009.92
2017-01-18T01:32:50.756Z,1009.92
2017-01-18T01:33:31.340Z,1009.91
2017-01-18T01:34:11.927Z,1009.92
2017-01-18T01:34:52.531Z,1009.94
2017-01-18T01:35:33.117Z,1009.92
2017-01-18T01:36:13.712Z,1009.97
2017-01-18T01:36:54.295Z,1009.96
2017-01-18T01:37:34.890Z,1009.92
2017-01-18T01:38:15.481Z,1009.96
2017-01-18T01:38:56.066Z,1009.97
2017-01-18T01:39:36.644Z,1009.99
2017-01-18T01:40:17.246Z,1009.99
2017-01-18T01:40:57.842Z,1010
2017-01-18T01:41:38.415Z,1010.04
2017-01-18T01:42:19.004Z,1010.02
2017-01-18T01:42:59.601Z,1010.06
2017-01-18T01:43:40.186Z,1010.06
2017-01-18T01:44:20.766Z,1010.04
2017-01-18T01:45:01.358Z,1010.07
2017-01-18T01:45:41.964Z,1010.1
2017-01-18T01:46:22.565Z,1010.1
2017-01-18T01:47:03.160Z,1010.15
2017-01-18T01:47:43.736Z,1010.13
2017-01-18T01:48:24.328Z,1010.14
2017-01-18T01:49:04.920Z,1010.19
2017-01-18T01:49:45.516Z,1010.16
2017-01-18T01:50:26.111Z,1010.2
2017-01-18T01:51:06.704Z,1010.22
2017-01-18T01:51:47.292Z,1010.25
2017-01-18T01:52:27.883Z,1010.19
2017-01-18T01:53:08.479Z,1010.25
2017-01-18T01:53:49.079Z,1010.29
2017-01-18T01:54:29.672Z,1010.23
2017-01-18T01:55:10.244Z,1010.28
2017-01-18T01:55:50.839Z,1010.31
2017-01-18T01:56:31.454Z,1010.3
2017-01-18T01:57:12.036Z,1010.29
2017-01-18T01:57:52.631Z,1010.28
2017-01-18T01:58:33.203Z,1010.32
2017-01-18T01:59:13.811Z,1010.34
2017-01-18T01:59:54.393Z,1010.33
2017-01-18T02:00:34.980Z,1010.34
2017-01-18T02:01:15.590Z,1010.41
2017-01-18T02:01:56.187Z,1010.42
2017-01-18T02:02:36.783Z,1010.41
2017-01-18T02:03:17.363Z,1010.4
2017-01-18T02:03:57.955Z,1010.44
2017-01-18T02:04:38.536Z,1010.47
2017-01-18T02:05:19.117Z,1010.44
2017-01-18T02:05:59.717Z,1010.45
2017-01-18T02:06:40.317Z,1010.42
2017-01-18T02:07:20.898Z,1010.44
2017-01-18T02:08:01.504Z,1010.45
2017-01-18T02:08:42.079Z,1010.43
2017-01-18T02:09:22.662Z,1010.41
2017-01-18T02:10:03.231Z,1010.47
2017-01-18T02:10:43.834Z,1010.44
2017-01-18T02:11:24.437Z,1010.47
2017-01-18T02:12:05.014Z,1010.41
2017-01-18T02:12:45.591Z,1010.42
2017-01-18T02:13:26.189Z,1010.4
2017-01-18T02:14:06.792Z,1010.4
2017-01-18T02:14:47.372Z,1010.42
2017-01-18T02:15:27.964Z,1010.4
2017-01-18T02:16:08.563Z,1010.42
2017-01-18T02:16:49.153Z,1010.37
2017-01-18T02:17:29.755Z,1010.39
2017-01-18T02:18:10.352Z,1010.4
2017-01-18T02:18:50.953Z,1010.44
2017-01-18T02:19:31.547Z,1010.42
2017-01-18T02:20:12.131Z,1010.42
2017-01-18T02:20:52.714Z,1010.45
2017-01-18T02:21:33.288Z,1010.43
2017-01-18T02:22:13.887Z,1010.46
2017-01-18T02:22:54.475Z,1010.48
2017-01-18T02:23:35.062Z,1010.45
2017-01-18T02:24:15.652Z,1010.47
2017-01-18T02:24:56.282Z,1010.48
2017-01-18T02:25:36.877Z,1010.52
2017-01-18T02:26:17.470Z,1010.52
2017-01-18T02:26:58.075Z,1010.52
2017-01-18T02:27:38.672Z,1010.5
2017-01-18T02:28:19.271Z,1010.51
2017-01-18T02:28:59.870Z,1010.55
2017-01-18T02:29:40.453Z,1010.58
2017-01-18T02:30:21.028Z,1010.56
2017-01-18T02:31:01.643Z,1010.56
2017-01-18T02:31:42.239Z,1010.61
2017-01-18T02:32:22.837Z,1010.65
2017-01-18T02:33:03.421Z,1010.6
2017-01-18T02:33:44.000Z,1010.61
2017-01-18T02:34:24.600Z,1010.58
2017-01-18T02:35:05.181Z,1010.62
2017-01-18T02:35:45.786Z,1010.57
2017-01-18T02:36:26.365Z,1010.61
2017-01-18T02:37:06.947Z,1010.61
2017-01-18T02:37:47.524Z,1010.62
2017-01-18T02:38:28.117Z,1010.65
2017-01-18T02:39:08.706Z,1010.65
2017-01-18T02:39:49.315Z,1010.65
2017-01-18T02:40:29.908Z,1010.64
2017-01-18T02:41:10.479Z,1010.65
2017-01-18T02:41:51.062Z,1010.63
2017-01-18T02:42:31.651Z,1010.62
2017-01-18T02:43:12.252Z,1010.63
2017-01-18T02:43:52.836Z,1010.62
2017-01-18T02:44:33.432Z,1010.67
2017-01-18T02:45:14.018Z,1010.66
2017-01-18T02:45:54.594Z,1010.65
2017-01-18T02:46:35.173Z,1010.67
2017-01-18T02:47:15.769Z,1010.68
2017-01-18T02:47:56.364Z,1010.69
2017-01-18T02:48:36.952Z,1010.71
2017-01-18T02:49:17.542Z,1010.76
2017-01-18T02:49:58.128Z,1010.72
2017-01-18T02:50:38.720Z,1010.76
2017-01-18T02:51:19.297Z,1010.75
2017-01-18T02:51:59.892Z,1010.68
2017-01-18T02:52:40.475Z,1010.7
2017-01-18T02:53:21.056Z,1010.68
2017-01-18T02:54:01.646Z,1010.67
2017-01-18T02:54:42.245Z,1010.69
2017-01-18T02:55:22.828Z,1010.73
2017-01-18T02:56:03.419Z,1010.68
2017-01-18T02:56:44.004Z,1010.66
2017-01-18T02:57:24.594Z,1010.64
2017-01-18T02:58:05.185Z,1010.63
2017-01-18T02:58:45.772Z,1010.64
2017-01-18T02:59:26.371Z,1010.62
2017-01-18T03:00:06.963Z,1010.59
2017-01-18T03:00:47.548Z,1010.58
2017-01-18T03:01:28.150Z,1010.6
2017-01-18T03:02:08.747Z,1010.57
2017-01-18T03:02:49.347Z,1010.57
2017-01-18T03:03:29.934Z,1010.58
2017-01-18T03:04:10.519Z,1010.61
2017-01-18T03:04:51.099Z,1010.57
2017-01-18T03:05:31.689Z,1010.58
2017-01-18T03:06:12.271Z,1010.56
2017-01-18T03:06:52.855Z,1010.62
2017-01-18T03:07:33.448Z,1010.65
2017-01-18T03:08:14.032Z,1010.6
2017-01-18T03:08:54.621Z,1010.6
2017-01-18T03:09:35.219Z,1010.61
2017-01-18T03:10:15.812Z,1010.52
2017-01-18T03:10:56.394Z,1010.56
2017-01-18T03:11:36.974Z,1010.56
2017-01-18T03:12:17.574Z,1010.57
2017-01-18T03:12:58.167Z,1010.57
2017-01-18T03:13:38.757Z,1010.57
2017-01-18T03:14:19.324Z,1010.56
2017-01-18T03:14:59.922Z,1010.59
2017-01-18T03:15:40.508Z,1010.52
2017-01-18T03:16:21.089Z,1010.49
2017-01-18T03:17:01.677Z,1010.48
2017-01-18T03:17:42.268Z,1010.51
2017-01-18T03:18:22.872Z,1010.55
2017-01-18T03:19:03.461Z,1010.5
2017-01-18T03:19:44.052Z,1010.51
2017-01-18T03:20:24.638Z,1010.53
2017-01-18T03:21:05.237Z,1010.5
2017-01-18T03:21:45.834Z,1010.49
2017-01-18T03:22:26.416Z,1010.51
2017-01-18T03:23:07.002Z,1010.48
2017-01-18T03:23:47.584Z,1010.49
2017-01-18T03:24:28.195Z,1010.5
2017-01-18T03:25:08.791Z,1010.52
2017-01-18T03:25:49.404Z,1010.51
2017-01-18T03:26:30.000Z,1010.41
2017-01-18T03:27:10.606Z,1010.46
2017-01-18T03:27:51.198Z,1010.46
2017-01-18T03:28:31.802Z,1010.46
2017-01-18T03:29:12.385Z,1010.43
2017-01-18T03:29:52.960Z,1010.36
2017-01-18T03:30:33.554Z,1010.39
2017-01-18T03:31:14.138Z,1010.45
2017-01-18T03:31:54.731Z,1010.38
2017-01-18T03:32:35.304Z,1010.39
2017-01-18T03:33:15.884Z,1010.38
2017-01-18T03:33:56.468Z,1010.39
2017-01-18T03:34:37.066Z,1010.36
2017-01-18T03:35:17.647Z,1010.38
2017-01-18T03:35:58.220Z,1010.4
2017-01-18T03:36:38.808Z,1010.39
2017-01-18T03:37:19.406Z,1010.42
2017-01-18T03:37:59.987Z,1010.38
2017-01-18T03:38:40.569Z,1010.37
2017-01-18T03:39:21.165Z,1010.4
2017-01-18T03:40:01.757Z,1010.43
2017-01-18T03:40:42.351Z,1010.35
2017-01-18T03:41:22.954Z,1010.35
2017-01-18T03:42:03.574Z,1010.36
2017-01-18T03:42:44.146Z,1010.36
2017-01-18T03:43:24.732Z,1010.4
2017-01-18T03:44:05.313Z,1010.35
2017-01-18T03:44:45.905Z,1010.35
2017-01-18T03:45:26.481Z,1010.36
2017-01-18T03:46:07.064Z,1010.36
2017-01-18T03:46:47.644Z,1010.38
2017-01-18T03:47:28.236Z,1010.35
2017-01-18T03:48:08.813Z,1010.31
2017-01-18T03:48:49.447Z,1010.34
2017-01-18T03:49:30.025Z,1010.33
2017-01-18T03:50:10.625Z,1010.37
2017-01-18T03:50:51.216Z,1010.32
2017-01-18T03:51:31.804Z,1010.35
2017-01-18T03:52:12.393Z,1010.3
2017-01-18T03:52:52.978Z,1010.34
2017-01-18T03:53:33.575Z,1010.32
2017-01-18T03:54:14.172Z,1010.35
2017-01-18T03:54:54.763Z,1010.36
2017-01-18T03:55:35.356Z,1010.29
2017-01-18T03:56:15.938Z,1010.28
2017-01-18T03:56:56.527Z,1010.31
2017-01-18T03:57:37.128Z,1010.31
2017-01-18T03:58:17.717Z,1010.32
2017-01-18T03:58:58.304Z,1010.27
2017-01-18T03:59:38.890Z,1010.31
2017-01-18T04:00:19.475Z,1010.27
2017-01-18T04:01:00.048Z,1010.25
2017-01-18T04:01:40.653Z,1010.29
2017-01-18T04:02:21.237Z,1010.28
2017-01-18T04:03:01.813Z,1010.28
2017-01-18T04:03:42.393Z,1010.26
2017-01-18T04:04:22.977Z,1010.23
2017-01-18T04:05:03.564Z,1010.22
2017-01-18T04:05:44.146Z,1010.25
2017-01-18T04:06:24.723Z,1010.24
2017-01-18T04:07:05.308Z,1010.21
2017-01-18T04:07:45.890Z,1010.21
2017-01-18T04:08:26.490Z,1010.22
2017-01-18T04:09:07.105Z,1010.28
2017-01-18T04:09:47.718Z,1010.27
2017-01-18T04:10:28.307Z,1010.17
2017-01-18T04:11:08.902Z,1010.22
2017-01-18T04:11:49.480Z,1010.25
2017-01-18T04:12:30.074Z,1010.26
2017-01-18T04:13:10.676Z,1010.29
2017-01-18T04:13:51.267Z,1010.27
2017-01-18T04:14:31.860Z,1010.29
2017-01-18T04:15:12.456Z,1010.26
2017-01-18T04:15:53.039Z,1010.29
2017-01-18T04:16:33.640Z,1010.29
2017-01-18T04:17:14.223Z,1010.31
2017-01-18T04:17:54.798Z,1010.29
2017-01-18T04:18:35.393Z,1010.32
2017-01-18T04:19:16.000Z,1010.31
2017-01-18T04:19:56.599Z,1010.29
2017-01-18T04:20:37.203Z,1010.24
2017-01-18T04:21:17.794Z,1010.2
2017-01-18T04:21:58.386Z,1010.25
2017-01-18T04:22:38.987Z,1010.19
2017-01-18T04:23:19.578Z,1010.17
2017-01-18T04:24:00.162Z,1010.18
2017-01-18T04:24:40.781Z,1010.2
2017-01-18T04:25:21.365Z,1010.2
2017-01-18T04:26:01.959Z,1010.17
2017-01-18T04:26:42.557Z,1010.17
2017-01-18T04:27:23.137Z,1010.21
2017-01-18T04:28:03.724Z,1010.21
2017-01-18T04:28:44.324Z,1010.16
2017-01-18T04:29:24.926Z,1010.15
2017-01-18T04:30:05.527Z,1010.21
2017-01-18T04:30:46.120Z,1010.2
2017-01-18T04:31:26.711Z,1010.24
2017-01-18T04:32:07.328Z,1010.25
2017-01-18T04:32:47.936Z,1010.26
2017-01-18T04:33:28.544Z,1010.25
2017-01-18T04:34:09.138Z,1010.23
2017-01-18T04:34:49.744Z,1010.24
2017-01-18T04:35:30.341Z,1010.26
2017-01-18T04:36:10.926Z,1010.25
2017-01-18T04:36:51.537Z,1010.25
2017-01-18T04:37:32.150Z,1010.28
2017-01-18T04:38:12.728Z,1010.26
2017-01-18T04:38:53.319Z,1010.26
2017-01-18T04:39:33.920Z,1010.3
2017-01-18T04:40:14.493Z,1010.3
2017-01-18T04:40:55.093Z,1010.28
2017-01-18T04:41:35.686Z,1010.29
2017-01-18T04:42:16.265Z,1010.28
2017-01-18T04:42:56.846Z,1010.29
2017-01-18T04:43:37.440Z,1010.27
2017-01-18T04:44:18.015Z,1010.28
2017-01-18T04:44:58.600Z,1010.27
2017-01-18T04:45:39.189Z,1010.32
2017-01-18T04:46:19.771Z,1010.28
2017-01-18T04:47:00.376Z,1010.3
2017-01-18T04:47:40.959Z,1010.32
2017-01-18T04:48:21.546Z,1010.29
2017-01-18T04:49:02.169Z,1010.31
2017-01-18T04:49:42.763Z,1010.3
2017-01-18T04:50:23.356Z,1010.33
2017-01-18T04:51:03.930Z,1010.35
2017-01-18T04:51:44.515Z,1010.33
2017-01-18T04:52:25.103Z,1010.34
2017-01-18T04:53:05.717Z,1010.28
2017-01-18T04:53:46.320Z,1010.35
2017-01-18T04:54:26.910Z,1010.31
2017-01-18T04:55:07.485Z,1010.32
2017-01-18T04:55:48.079Z,1010.32
2017-01-18T04:56:28.675Z,1010.3
2017-01-18T04:57:09.276Z,1010.32
2017-01-18T04:57:49.883Z,1010.28
2017-01-18T04:58:30.470Z,1010.31
2017-01-18T04:59:11.049Z,1010.3
2017-01-18T04:59:51.633Z,1010.31
2017-01-18T05:00:32.240Z,1010.33
2017-01-18T05:01:12.839Z,1010.29
2017-01-18T05:01:53.435Z,1010.33
2017-01-18T05:02:34.039Z,1010.32
2017-01-18T05:03:14.644Z,1010.31
2017-01-18T05:03:55.233Z,1010.35
2017-01-18T05:04:35.819Z,1010.28
2017-01-18T05:05:16.395Z,1010.27
2017-01-18T05:05:56.978Z,1010.28
2017-01-18T05:06:37.563Z,1010.3
2017-01-18T05:07:18.164Z,1010.3
2017-01-18T05:07:58.752Z,1010.28
2017-01-18T05:08:39.325Z,1010.33
2017-01-18T05:09:19.904Z,1010.27
2017-01-18T05:10:00.506Z,1010.32
2017-01-18T05:10:41.110Z,1010.29
2017-01-18T05:11:21.716Z,1010.29
2017-01-18T05:12:02.326Z,1010.29
2017-01-18T05:12:42.932Z,1010.3
2017-01-18T05:13:23.519Z,1010.32
2017-01-18T05:14:04.100Z,1010.32
2017-01-18T05:14:44.691Z,1010.32
2017-01-18T05:15:25.270Z,1010.29
2017-01-18T05:16:05.883Z,1010.32
2017-01-18T05:16:46.494Z,1010.35
2017-01-18T05:17:27.085Z,1010.33
2017-01-18T05:18:07.667Z,1010.34
2017-01-18T05:18:48.240Z,1010.31
2017-01-18T05:19:28.829Z,1010.35
2017-01-18T05:20:09.403Z,1010.33
2017-01-18T05:20:50.032Z,1010.35
2017-01-18T05:21:30.629Z,1010.35
2017-01-18T05:22:11.214Z,1010.35
2017-01-18T05:22:51.797Z,1010.35
2017-01-18T05:23:32.394Z,1010.38
2017-01-18T05:24:13.006Z,1010.38
2017-01-18T05:24:53.595Z,1010.36
2017-01-18T05:25:34.197Z,1010.33
2017-01-18T05:26:14.803Z,1010.33
2017-01-18T05:26:55.406Z,1010.34
2017-01-18T05:27:36.019Z,1010.31
2017-01-18T05:28:16.609Z,1010.32
2017-01-18T05:28:57.212Z,1010.31
2017-01-18T05:29:37.789Z,1010.36
2017-01-18T05:30:18.374Z,1010.35
2017-01-18T05:30:58.965Z,1010.33
2017-01-18T05:31:39.572Z,1010.36
2017-01-18T05:32:20.155Z,1010.31
2017-01-18T05:33:00.746Z,1010.38
2017-01-18T05:33:41.343Z,1010.36
2017-01-18T05:34:21.935Z,1010.35
2017-01-18T05:35:02.524Z,1010.36
2017-01-18T05:35:43.131Z,1010.36
2017-01-18T05:36:23.749Z,1010.4
2017-01-18T05:37:04.336Z,1010.35
2017-01-18T05:37:44.944Z,1010.35
2017-01-18T05:38:25.539Z,1010.4
2017-01-18T05:39:06.153Z,1010.4
2017-01-18T05:39:46.743Z,1010.39
2017-01-18T05:40:27.328Z,1010.38
2017-01-18T05:41:07.933Z,1010.38
2017-01-18T05:41:48.535Z,1010.42
2017-01-18T05:42:29.126Z,1010.38
2017-01-18T05:43:09.722Z,1010.42
2017-01-18T05:43:50.310Z,1010.4
2017-01-18T05:44:30.911Z,1010.45
2017-01-18T05:45:11.489Z,1010.42
2017-01-18T05:45:52.066Z,1010.41
2017-01-18T05:46:32.661Z,1010.41
2017-01-18T05:47:13.259Z,1010.39
2017-01-18T05:47:53.828Z,1010.41
2017-01-18T05:48:34.422Z,1010.37
2017-01-18T05:49:15.027Z,1010.46
2017-01-18T05:49:55.619Z,1010.4
2017-01-18T05:50:36.210Z,1010.41
2017-01-18T05:51:16.820Z,1010.46
2017-01-18T05:51:57.407Z,1010.44
2017-01-18T05:52:37.982Z,1010.49
2017-01-18T05:53:18.571Z,1010.46
2017-01-18T05:53:59.153Z,1010.49
2017-01-18T05:54:39.737Z,1010.47
2017-01-18T05:55:20.313Z,1010.49
2017-01-18T05:56:00.909Z,1010.52
2017-01-18T05:56:41.489Z,1010.53
2017-01-18T05:57:22.071Z,1010.49
2017-01-18T05:58:02.664Z,1010.53
2017-01-18T05:58:43.256Z,1010.52
2017-01-18T05:59:23.858Z,1010.52
2017-01-18T06:00:04.435Z,1010.54
2017-01-18T06:00:45.015Z,1010.55
2017-01-18T06:01:25.605Z,1010.55
2017-01-18T06:02:06.204Z,1010.53
2017-01-18T06:02:46.782Z,1010.5
2017-01-18T06:03:27.364Z,1010.52
2017-01-18T06:04:07.949Z,1010.53
2017-01-18T06:04:48.524Z,1010.51
2017-01-18T06:05:29.112Z,1010.54
2017-01-18T06:06:09.710Z,1010.55
2017-01-18T06:06:50.303Z,1010.57
2017-01-18T06:07:30.879Z,1010.6
2017-01-18T06:08:11.461Z,1010.61
2017-01-18T06:08:52.042Z,1010.54
2017-01-18T06:09:32.634Z,1010.52
2017-01-18T06:10:13.222Z,1010.56
2017-01-18T06:10:53.813Z,1010.53
2017-01-18T06:11:34.415Z,1010.5
2017-01-18T06:12:14.995Z,1010.51
2017-01-18T06:12:55.580Z,1010.53
2017-01-18T06:13:36.155Z,1010.53
2017-01-18T06:14:16.734Z,1010.52
2017-01-18T06:14:57.327Z,1010.56
2017-01-18T06:15:37.934Z,1010.57
2017-01-18T06:16:18.534Z,1010.56
2017-01-18T06:16:59.137Z,1010.59
2017-01-18T06:17:39.730Z,1010.59
2017-01-18T06:18:20.343Z,1010.58
2017-01-18T06:19:00.943Z,1010.59
2017-01-18T06:19:41.550Z,1010.64
2017-01-18T06:20:22.141Z,1010.63
2017-01-18T06:21:02.728Z,1010.61
2017-01-18T06:21:43.308Z,1010.61
2017-01-18T06:22:23.888Z,1010.58
2017-01-18T06:23:04.462Z,1010.58
2017-01-18T06:23:45.049Z,1010.6
2017-01-18T06:24:25.623Z,1010.57
2017-01-18T06:25:06.201Z,1010.6
2017-01-18T06:25:46.785Z,1010.57
2017-01-18T06:26:27.371Z,1010.6
2017-01-18T06:27:07.965Z,1010.58
2017-01-18T06:27:48.554Z,1010.59
2017-01-18T06:28:29.167Z,1010.63
2017-01-18T06:29:09.743Z,1010.63
2017-01-18T06:29:50.338Z,1010.64
2017-01-18T06:30:30.918Z,1010.66
2017-01-18T06:31:11.513Z,1010.66
2017-01-18T06:31:52.101Z,1010.61
2017-01-18T06:32:32.712Z,1010.67
2017-01-18T06:33:13.295Z,1010.66
2017-01-18T06:33:53.869Z,1010.62
2017-01-18T06:34:34.445Z,1010.66
2017-01-18T06:35:15.029Z,1010.69
2017-01-18T06:35:55.620Z,1010.67
2017-01-18T06:36:36.206Z,1010.65
2017-01-18T06:37:16.805Z,1010.67
2017-01-18T06:37:57.395Z,1010.67
2017-01-18T06:38:37.984Z,1010.66
2017-01-18T06:39:18.569Z,1010.71
2017-01-18T06:39:59.158Z,1010.67
2017-01-18T06:40:39.756Z,1010.65
2017-01-18T06:41:20.345Z,1010.64
2017-01-18T06:42:00.936Z,1010.66
2017-01-18T06:42:41.509Z,1010.67
2017-01-18T06:43:22.096Z,1010.69
2017-01-18T06:44:02.674Z,1010.67
2017-01-18T06:44:43.256Z,1010.7
2017-01-18T06:45:23.832Z,1010.67
2017-01-18T06:46:04.416Z,1010.71
2017-01-18T06:46:44.995Z,1010.71
2017-01-18T06:47:25.582Z,1010.65
2017-01-18T06:48:06.180Z,1010.71
2017-01-18T06:48:46.776Z,1010.73
2017-01-18T06:49:27.358Z,1010.66
2017-01-18T06:50:07.962Z,1010.71
2017-01-18T06:50:48.541Z,1010.76
2017-01-18T06:51:29.129Z,1010.73
2017-01-18T06:52:09.709Z,1010.72
2017-01-18T06:52:50.308Z,1010.77
2017-01-18T06:53:30.890Z,1010.75
2017-01-18T06:54:11.478Z,1010.74
2017-01-18T06:54:52.060Z,1010.75
2017-01-18T06:55:32.643Z,1010.76
2017-01-18T06:56:13.230Z,1010.72
2017-01-18T06:56:53.815Z,1010.75
2017-01-18T06:57:34.393Z,1010.76
2017-01-18T06:58:14.985Z,1010.74
2017-01-18T06:58:55.565Z,1010.77
2017-01-18T06:59:36.153Z,1010.73
2017-01-18T07:00:16.837Z,1010.69
2017-01-18T07:00:57.417Z,1010.66
2017-01-18T07:01:38.018Z,1010.67
2017-01-18T07:02:18.597Z,1010.7
2017-01-18T07:02:59.196Z,1010.67
2017-01-18T07:03:39.776Z,1010.7
2017-01-18T07:04:20.365Z,1010.7
2017-01-18T07:05:00.946Z,1010.7
2017-01-18T07:05:41.522Z,1010.63
2017-01-18T07:06:22.126Z,1010.73
2017-01-18T07:07:02.714Z,1010.69
2017-01-18T07:07:43.288Z,1010.7
2017-01-18T07:08:23.900Z,1010.68
2017-01-18T07:09:04.493Z,1010.72
2017-01-18T07:09:45.098Z,1010.65
2017-01-18T07:10:25.682Z,1010.7
2017-01-18T07:11:06.269Z,1010.65
2017-01-18T07:11:46.856Z,1010.69
2017-01-18T07:12:27.444Z,1010.72
2017-01-18T07:13:08.027Z,1010.69
2017-01-18T07:13:48.641Z,1010.66
2017-01-18T07:14:29.243Z,1010.68
2017-01-18T07:15:09.836Z,1010.68
2017-01-18T07:15:50.419Z,1010.71
2017-01-18T07:16:31.687Z,1010.69
2017-01-18T07:17:12.280Z,1010.69
2017-01-18T07:17:52.867Z,1010.67
2017-01-18T07:18:33.447Z,1010.67
2017-01-18T07:19:14.033Z,1010.72
2017-01-18T07:19:54.630Z,1010.69
2017-01-18T07:20:35.217Z,1010.66
2017-01-18T07:21:15.809Z,1010.67
2017-01-18T07:21:56.414Z,1010.65
2017-01-18T07:22:37.011Z,1010.64
2017-01-18T07:23:17.594Z,1010.7
2017-01-18T07:23:58.183Z,1010.68
2017-01-18T07:24:38.782Z,1010.7
2017-01-18T07:25:19.378Z,1010.75
2017-01-18T07:26:00.002Z,1010.73
2017-01-18T07:26:40.592Z,1010.73
2017-01-18T07:27:21.183Z,1010.76
2017-01-18T07:28:01.768Z,1010.77
2017-01-18T07:28:42.373Z,1010.8
2017-01-18T07:29:22.972Z,1010.72
2017-01-18T07:30:03.592Z,1010.74
2017-01-18T07:30:44.284Z,1010.76
2017-01-18T07:31:25.254Z,1010.83
2017-01-18T07:32:05.853Z,1010.81
2017-01-18T07:32:46.455Z,1010.81
2017-01-18T07:33:27.052Z,1010.83
2017-01-18T07:34:07.788Z,1010.78
2017-01-18T07:34:48.391Z,1010.78
2017-01-18T07:35:28.989Z,1010.84
2017-01-18T07:36:09.567Z,1010.86
2017-01-18T07:36:50.147Z,1010.88
2017-01-18T07:37:30.727Z,1010.86
2017-01-18T07:38:11.324Z,1010.76
2017-01-18T07:38:51.923Z,1010.77
2017-01-18T07:39:32.517Z,1010.81
2017-01-18T07:40:13.098Z,1010.83
2017-01-18T07:40:53.682Z,1010.88
2017-01-18T07:41:34.279Z,1010.92
2017-01-18T07:42:14.868Z,1010.9
2017-01-18T07:42:55.457Z,1010.9
2017-01-18T07:43:36.053Z,1010.94
2017-01-18T07:44:16.643Z,1010.9
2017-01-18T07:44:57.233Z,1010.91
2017-01-18T07:45:38.722Z,1010.93
2017-01-18T07:46:19.286Z,1010.93
2017-01-18T07:46:59.864Z,1010.95
2017-01-18T07:47:40.788Z,1010.92
2017-01-18T07:48:21.373Z,1010.9
2017-01-18T07:49:01.974Z,1010.92
2017-01-18T07:49:42.576Z,1010.9
2017-01-18T07:50:23.170Z,1010.92
2017-01-18T07:51:03.763Z,1010.92
2017-01-18T07:51:44.368Z,1010.94
2017-01-18T07:52:24.943Z,1010.93
2017-01-18T07:53:05.530Z,1010.97
2017-01-18T07:53:46.135Z,1010.99
2017-01-18T07:54:26.749Z,1011.01
2017-01-18T07:55:07.336Z,1011.02
2017-01-18T07:55:47.938Z,1011.03
2017-01-18T07:56:28.539Z,1010.98
2017-01-18T07:57:09.145Z,1011.01
2017-01-18T07:57:49.747Z,1011.06
2017-01-18T07:58:30.342Z,1011.04
2017-01-18T07:59:10.946Z,1011.04
2017-01-18T07:59:51.546Z,1011.06
2017-01-18T08:00:32.207Z,1011.1
2017-01-18T08:01:12.795Z,1011.11
2017-01-18T08:01:53.375Z,1011.08
2017-01-18T08:02:34.952Z,1011.13
2017-01-18T08:03:15.649Z,1011.07
2017-01-18T08:03:56.247Z,1011.12
2017-01-18T08:04:36.840Z,1011.15
2017-01-18T08:05:17.439Z,1011.08
2017-01-18T08:05:58.039Z,1011.1
2017-01-18T08:06:38.635Z,1011.13
2017-01-18T08:07:19.240Z,1011.18
2017-01-18T08:07:59.843Z,1011.16
2017-01-18T08:08:40.444Z,1011.18
2017-01-18T08:09:21.036Z,1011.2
2017-01-18T08:10:01.620Z,1011.16
2017-01-18T08:10:42.215Z,1011.2
2017-01-18T08:11:22.805Z,1011.22
2017-01-18T08:12:03.394Z,1011.17
2017-01-18T08:12:43.976Z,1011.2